KMEI/MEI METAR and TAF weather

Enter ICAO airport designator
Station Type Date Time Source
KMEI METAR 2022/05/26 04:58 UTC NOAA

KMEI 260458Z AUTO 14006KT 10SM SCT009 OVC110 22/20 A2994 RMK AO2 SLP133 T02170200 $


Station Type Date Time Source
KMEI Decoded METAR 2022/05/26 04:58 UTC NOAA

MERIDIAN KEY FIELD, MS, United States (KMEI) 32-20N 088-45W 89M
May 26, 2022 - 12:58 AM EDT / 2022.05.26 0458 UTC
Wind: from the SE (140 degrees) at 7 MPH (6 KT):0
Visibility: 10 mile(s):0
Sky conditions: overcast
Temperature: 71.1 F (21.7 C)
Dew Point: 68.0 F (20.0 C)
Relative Humidity: 90%
Pressure (altimeter): 29.94 in. Hg (1013 hPa)
ob: KMEI 260458Z AUTO 14006KT 10SM SCT009 OVC110 22/20 A2994 RMK AO2 SLP133 T02170200
cycle: 5

Station Type Date Time Source
KMEI TAF 2022/05/26 04:22 UTC NOAA

TAF
AMD KMEI 260420Z 2604/2624 15005KT P6SM OVC008
FM260900 18011KT 6SM SHRA VCTS OVC015CB
FM261200 18012KT 6SM -RA BR OVC007
FM261400 22010KT 6SM -RA BR OVC015
FM261700 22012G18KT P6SM FEW250

Example: see airport list